Time;durP1;ratioP1;P1;durP2;ratioP2;P2;SDS_P1;SDS_P2;PMS_P1;PMS_P2;Temp;Humidity;BMP_temperature;BMP_pressure;BME280_temperature;BME280_humidity;BME280_pressure;Samples;Min_cycle;Max_cycle;Signal;HPM_P1;HPM_P2
2023/09/06 03:59:27;;;;;;;9.35;5.15;;;;;;;17.78;86.32;101258.72;5606530;31;75117;-57
2023/09/06 04:02:30;;;;;;;7.82;5.25;;;;;;;17.78;86.32;101258.72;5588077;31;33350;-58
2023/09/06 04:05:33;;;;;;;6.70;5.12;;;;;;;17.25;97.45;101257.44;5603420;31;34266;-57
2023/09/06 04:08:36;;;;;;;7.68;5.20;;;;;;;17.20;91.88;101256.72;5603663;31;32836;-57
2023/09/06 04:11:40;;;;;;;6.57;5.28;;;;;;;17.26;83.44;101258.22;5603490;31;33286;-56
2023/09/06 04:14:42;;;;;;;9.55;5.68;;;;;;;17.38;99.54;101262.03;5601170;31;33659;-56
2023/09/06 04:17:45;;;;;;;6.62;4.70;;;;;;;17.42;82.13;101255.97;5602969;31;33520;-56
2023/09/06 04:20:49;;;;;;;7.68;4.47;;;;;;;17.38;88.94;101259.31;5603273;31;33594;-58
2023/09/06 04:23:52;;;;;;;6.57;4.50;;;;;;;17.42;81.26;101264.09;5602991;31;33145;-56
2023/09/06 04:26:54;;;;;;;6.00;4.60;;;;;;;17.48;96.28;101266.44;5588028;31;33375;-56
2023/09/06 04:29:57;;;;;;;5.60;4.03;;;;;;;17.57;84.98;101263.78;5582173;31;34327;-56
2023/09/06 04:33:00;;;;;;;6.68;4.97;;;;;;;17.58;80.92;101268.91;5600896;31;33204;-56
2023/09/06 04:36:04;;;;;;;7.62;5.00;;;;;;;17.53;88.90;101269.00;5576405;31;33413;-57
2023/09/06 04:39:07;;;;;;;8.38;4.65;;;;;;;17.49;86.41;101268.03;5583163;31;34646;-57
2023/09/06 04:42:11;;;;;;;6.82;4.80;;;;;;;17.58;78.44;101271.63;5583348;31;34331;-58
2023/09/06 04:45:14;;;;;;;9.35;4.97;;;;;;;17.74;100.00;101282.09;5583258;31;32042;-57
2023/09/06 04:48:17;;;;;;;8.27;5.53;;;;;;;17.66;87.24;101280.94;5574196;32;33546;-57
2023/09/06 04:51:20;;;;;;;7.20;5.10;;;;;;;17.75;84.61;101279.09;5578460;31;33578;-56
2023/09/06 04:54:23;;;;;;;7.03;5.32;;;;;;;17.72;85.95;101285.13;5583267;31;34501;-57
2023/09/06 04:57:25;;;;;;;6.80;4.72;;;;;;;17.70;94.69;101281.13;5582928;31;33266;-56
2023/09/06 05:00:32;;;;;;;10.40;5.32;;;;;;;17.72;99.02;101279.72;5579098;31;33685;-57
2023/09/06 05:03:35;;;;;;;10.02;5.50;;;;;;;17.84;95.04;101284.59;5580401;31;33711;-56
2023/09/06 05:06:39;;;;;;;8.20;5.47;;;;;;;17.89;94.94;101294.56;5567429;32;33636;-56
2023/09/06 05:09:41;;;;;;;8.15;5.30;;;;;;;17.76;88.80;101294.28;5555816;32;34329;-58
2023/09/06 05:12:45;;;;;;;6.12;4.90;;;;;;;17.79;83.29;101290.97;5550324;32;33300;-57
2023/09/06 05:15:47;;;;;;;13.05;5.00;;;;;;;17.89;84.93;101294.56;5550269;32;33687;-56
2023/09/06 05:18:50;;;;;;;7.72;4.70;;;;;;;17.91;85.62;101293.12;5550560;32;33572;-56
2023/09/06 05:21:52;;;;;;;10.02;5.18;;;;;;;18.22;89.19;101293.19;5563745;32;34433;-57
2023/09/06 05:24:56;;;;;;;13.13;5.15;;;;;;;18.39;92.05;101299.84;5569658;32;34486;-56
2023/09/06 05:28:04;;;;;;;7.28;4.95;;;;;;;18.48;91.85;101298.78;5569865;32;33778;-56
2023/09/06 05:31:08;;;;;;;9.65;4.93;;;;;;;18.56;95.57;101299.94;5569711;32;33678;-57
2023/09/06 05:34:11;;;;;;;6.93;4.90;;;;;;;18.51;86.34;101306.31;5568957;31;34368;-57
2023/09/06 05:37:13;;;;;;;19.65;5.80;;;;;;;18.61;88.38;101299.81;5569312;32;34369;-56
2023/09/06 05:40:22;;;;;;;10.02;5.37;;;;;;;18.74;92.63;101301.69;5567375;32;33481;-57
2023/09/06 05:43:26;;;;;;;7.15;5.72;;;;;;;18.95;85.43;101304.63;5551500;32;33205;-57
2023/09/06 05:46:28;;;;;;;14.77;5.30;;;;;;;19.05;86.26;101305.47;5549948;32;33695;-56
2023/09/06 05:49:38;;;;;;;10.90;5.47;;;;;;;19.11;77.31;101304.22;5548917;32;33638;-57
2023/09/06 05:52:41;;;;;;;49.75;10.13;;;;;;;19.29;72.53;101313.19;5549461;32;33727;-57
2023/09/06 05:55:43;;;;;;;7.62;5.00;;;;;;;19.35;82.83;101311.94;5550066;32;33643;-57
2023/09/06 05:58:47;;;;;;;7.20;4.65;;;;;;;19.41;76.91;101305.25;5549490;32;33692;-56
2023/09/06 06:01:52;;;;;;;18.85;5.37;;;;;;;19.42;73.06;101304.91;5559401;32;33750;-57
2023/09/06 06:04:56;;;;;;;9.32;5.28;;;;;;;19.65;78.31;101305.63;5551402;32;33583;-56
2023/09/06 06:07:59;;;;;;;10.95;5.40;;;;;;;19.73;72.08;101308.66;5549544;32;34353;-57
2023/09/06 06:11:01;;;;;;;6.43;5.20;;;;;;;19.75;72.49;101303.72;5554033;32;34312;-57
2023/09/06 06:14:04;;;;;;;7.50;4.70;;;;;;;19.78;75.18;101306.59;5568683;32;33693;-57
2023/09/06 06:17:14;;;;;;;10.15;5.20;;;;;;;19.85;69.61;101300.66;5568994;32;33671;-56
2023/09/06 06:20:17;;;;;;;18.33;6.10;;;;;;;20.01;74.98;101312.66;5551129;32;34340;-57
2023/09/06 06:23:26;;;;;;;24.35;7.18;;;;;;;20.13;73.38;101310.09;5568874;32;34266;-57
2023/09/06 06:26:29;;;;;;;9.05;5.32;;;;;;;20.23;72.24;101317.16;5568529;32;34387;-58
2023/09/06 06:29:31;;;;;;;18.58;5.12;;;;;;;20.25;68.31;101317.59;5568975;32;33613;-57
2023/09/06 06:32:34;;;;;;;12.52;4.62;;;;;;;20.33;69.74;101318.69;5568609;32;33385;-57
2023/09/06 06:35:38;;;;;;;14.70;5.15;;;;;;;20.49;79.56;101324.44;5568611;32;34300;-57
2023/09/06 06:38:40;;;;;;;17.98;5.35;;;;;;;20.62;76.08;101327.00;5568783;32;33667;-56
2023/09/06 06:41:44;;;;;;;17.40;4.40;;;;;;;20.74;74.12;101322.81;5557435;32;33149;-57
2023/09/06 06:44:49;;;;;;;15.50;4.70;;;;;;;20.74;66.87;101334.50;5549174;32;34261;-56
2023/09/06 06:47:52;;;;;;;15.98;5.15;;;;;;;20.72;62.83;101336.75;5549706;32;33920;-57
2023/09/06 06:50:55;;;;;;;29.52;5.95;;;;;;;20.73;63.97;101334.81;5553112;32;33712;-57
2023/09/06 06:53:57;;;;;;;15.60;4.72;;;;;;;20.83;65.32;101335.28;5568815;32;34349;-57
2023/09/06 06:56:59;;;;;;;18.73;4.20;;;;;;;21.03;72.75;101338.41;5568852;32;33714;-57
2023/09/06 07:00:06;;;;;;;11.32;4.47;;;;;;;21.06;74.33;101340.50;5566404;32;33562;-56
2023/09/06 07:03:09;;;;;;;6.75;4.12;;;;;;;21.00;70.83;101345.31;5565194;32;33670;-57
2023/09/06 07:06:13;;;;;;;15.70;4.47;;;;;;;21.06;69.48;101335.84;5559391;32;34236;-57
2023/09/06 07:09:15;;;;;;;7.95;4.32;;;;;;;21.18;68.81;101337.84;5552755;32;34298;-56
2023/09/06 07:12:18;;;;;;;7.50;4.25;;;;;;;21.24;69.70;101335.75;5568468;32;33776;-57
2023/09/06 07:15:23;;;;;;;8.53;3.90;;;;;;;21.23;60.03;101334.94;5567963;32;34484;-57
2023/09/06 07:18:25;;;;;;;7.68;4.47;;;;;;;21.25;61.54;101329.16;5568337;32;34115;-57
2023/09/06 07:21:28;;;;;;;7.12;4.10;;;;;;;21.39;63.67;101331.66;5568130;32;34236;-57
2023/09/06 07:24:31;;;;;;;14.70;4.62;;;;;;;21.43;64.87;101322.50;5566100;32;34300;-58
2023/09/06 07:27:33;;;;;;;7.95;4.32;;;;;;;21.41;62.61;101321.22;5559963;32;33747;-57
2023/09/06 07:30:36;;;;;;;6.90;4.15;;;;;;;21.49;75.37;101312.19;5567515;32;34251;-57
2023/09/06 07:33:38;;;;;;;7.95;4.70;;;;;;;21.43;61.40;101314.31;5567608;32;34367;-57
2023/09/06 07:36:41;;;;;;;9.55;4.20;;;;;;;21.52;58.62;101308.78;5567837;31;32204;-56
2023/09/06 07:39:43;;;;;;;7.00;4.85;;;;;;;21.58;60.28;101313.72;5567691;32;33099;-57
2023/09/06 07:42:46;;;;;;;9.80;4.80;;;;;;;21.60;62.37;101313.41;5567133;32;34238;-58
2023/09/06 07:45:48;;;;;;;8.10;4.00;;;;;;;21.62;61.25;101326.69;5567686;32;34411;-57
2023/09/06 07:48:51;;;;;;;11.95;4.55;;;;;;;21.63;66.25;101326.38;5566193;32;34316;-57
2023/09/06 07:51:53;;;;;;;14.05;4.40;;;;;;;21.68;59.15;101330.84;5566021;32;33061;-57
2023/09/06 07:54:58;;;;;;;8.82;4.25;;;;;;;21.81;64.65;101324.31;5565189;32;34238;-57
2023/09/06 07:58:00;;;;;;;8.07;4.40;;;;;;;21.81;60.33;101327.84;5563470;32;33746;-57
2023/09/06 08:01:04;;;;;;;8.18;4.65;;;;;;;21.83;57.15;101329.47;5562518;32;33641;-57
2023/09/06 08:04:21;;;;;;;10.02;4.68;;;;;;;21.88;57.24;101319.13;5564701;32;34311;-57
2023/09/06 08:07:24;;;;;;;7.20;4.62;;;;;;;21.90;60.27;101330.50;5547298;32;33579;-56
2023/09/06 08:10:27;;;;;;;19.75;4.50;;;;;;;21.90;58.05;101337.91;5566188;32;33651;-57
2023/09/06 08:13:29;;;;;;;7.80;4.70;;;;;;;21.85;58.26;101335.37;5559429;32;33145;-57
2023/09/06 08:16:31;;;;;;;8.63;4.55;;;;;;;21.94;59.99;101338.84;5556807;32;33841;-57
2023/09/06 08:19:34;;;;;;;7.80;4.20;;;;;;;22.05;58.56;101326.34;5563233;32;33785;-57
2023/09/06 08:22:36;;;;;;;10.57;4.55;;;;;;;22.08;60.43;101328.41;5566042;32;34054;-57
2023/09/06 08:25:46;;;;;;;7.85;4.45;;;;;;;22.15;62.87;101333.34;5555608;32;33598;-57
2023/09/06 08:28:49;;;;;;;7.20;4.20;;;;;;;22.10;60.88;101337.09;5558896;32;33652;-58
2023/09/06 08:31:51;;;;;;;12.90;4.30;;;;;;;22.25;57.72;101338.41;5558943;32;33630;-57
2023/09/06 08:34:54;;;;;;;8.38;3.78;;;;;;;22.26;58.42;101331.84;5556090;32;33551;-57
2023/09/06 08:37:56;;;;;;;9.88;4.60;;;;;;;22.31;57.21;101323.41;5562598;32;33520;-57
2023/09/06 08:40:58;;;;;;;6.93;4.12;;;;;;;22.40;60.45;101335.06;5566033;32;33642;-57
2023/09/06 08:44:06;;;;;;;10.30;4.37;;;;;;;22.45;55.84;101328.56;5562466;32;34288;-57
2023/09/06 08:47:11;;;;;;;8.80;4.22;;;;;;;22.45;57.53;101329.41;5560348;32;33239;-57
2023/09/06 08:50:14;;;;;;;6.00;3.80;;;;;;;22.56;58.24;101326.22;5559402;32;33106;-57
2023/09/06 08:53:18;;;;;;;6.47;3.83;;;;;;;22.57;54.91;101323.16;5557362;32;33273;-57
2023/09/06 08:56:21;;;;;;;25.90;5.12;;;;;;;22.63;56.47;101318.28;5567144;32;33647;-57
2023/09/06 08:59:25;;;;;;;14.50;5.10;;;;;;;22.71;58.64;101320.09;5568500;32;33526;-58
2023/09/06 09:02:27;;;;;;;9.80;4.62;;;;;;;22.69;55.33;101320.44;5565269;32;33678;-57
2023/09/06 09:05:30;;;;;;;5.47;3.60;;;;;;;22.83;56.37;101319.31;5555861;32;33659;-57
2023/09/06 09:08:33;;;;;;;11.80;4.03;;;;;;;22.81;53.49;101319.66;5564826;32;33727;-57
2023/09/06 09:11:43;;;;;;;10.20;3.85;;;;;;;22.92;54.47;101317.28;5569555;32;33804;-57
2023/09/06 09:14:45;;;;;;;8.95;4.12;;;;;;;22.97;58.19;101328.00;5568944;32;33508;-58
2023/09/06 09:17:50;;;;;;;14.55;4.37;;;;;;;23.01;57.52;101322.66;5567808;32;33880;-56
2023/09/06 09:21:04;;;;;;;11.32;4.20;;;;;;;23.05;56.16;101318.13;5551102;32;33624;-57
2023/09/06 09:24:07;;;;;;;6.25;3.72;;;;;;;23.02;53.39;101322.31;5567633;32;33228;-57
2023/09/06 09:27:09;;;;;;;12.00;4.00;;;;;;;23.06;54.84;101320.50;5565609;32;33613;-57
2023/09/06 09:30:14;;;;;;;11.20;4.00;;;;;;;;;;5565158;32;33397;-57
2023/09/06 09:33:16;;;;;;;9.60;3.85;;;;;;;23.18;56.07;101316.97;5568543;32;34055;-57
2023/09/06 09:36:19;;;;;;;37.50;6.22;;;;;;;23.17;53.04;101299.75;5564411;31;33565;-57
2023/09/06 09:39:26;;;;;;;10.75;3.85;;;;;;;23.29;52.14;101309.88;5563844;32;33802;-57
2023/09/06 09:42:28;;;;;;;5.12;3.42;;;;;;;23.25;52.78;101310.94;5565432;32;34313;-57
2023/09/06 09:45:45;;;;;;;10.15;4.12;;;;;;;23.32;53.65;101300.19;5556234;32;33801;-57
2023/09/06 09:48:48;;;;;;;5.40;3.42;;;;;;;23.45;53.35;101305.31;5563792;32;33174;-57
2023/09/06 09:51:50;;;;;;;6.50;3.37;;;;;;;23.54;51.31;101298.88;5565574;32;33299;-57
2023/09/06 09:54:55;;;;;;;6.55;3.75;;;;;;;23.60;51.04;101303.78;5566963;32;34963;-57
2023/09/06 09:58:00;;;;;;;7.60;3.67;;;;;;;23.61;52.74;101301.84;5562801;32;33578;-57
2023/09/06 10:01:05;;;;;;;7.47;3.77;;;;;;;23.58;53.45;101294.34;5568594;32;34466;-57
2023/09/06 10:04:11;;;;;;;7.35;3.60;;;;;;;23.68;51.87;101293.88;5561019;32;32167;-57
2023/09/06 10:07:16;;;;;;;9.05;3.45;;;;;;;23.73;51.51;101288.16;5555013;32;34369;-57
2023/09/06 10:10:20;;;;;;;10.83;3.53;;;;;;;23.65;51.05;101286.34;5566531;32;33430;-57
2023/09/06 10:13:26;;;;;;;8.35;3.65;;;;;;;23.64;52.94;101285.53;5559832;32;34272;-57
2023/09/06 10:16:31;;;;;;;5.05;2.97;;;;;;;23.71;49.59;101273.22;5567644;32;33427;-58
2023/09/06 10:19:36;;;;;;;5.50;3.60;;;;;;;23.68;49.57;101271.97;5567374;32;33909;-56
2023/09/06 10:22:57;;;;;;;5.07;3.22;;;;;;;23.71;51.03;101271.28;5567972;32;34061;-57
2023/09/06 10:26:01;;;;;;;14.15;3.65;;;;;;;23.78;51.83;101267.97;5563453;32;33761;-57
2023/09/06 10:29:09;;;;;;;5.95;3.33;;;;;;;23.84;50.25;101270.09;5556965;32;33656;-58
2023/09/06 10:32:11;;;;;;;6.60;3.10;;;;;;;23.89;50.63;101271.78;5563620;32;33747;-57
2023/09/06 10:35:26;;;;;;;5.80;3.28;;;;;;;23.97;51.20;101272.75;5566131;32;33596;-57
2023/09/06 10:38:30;;;;;;;15.35;3.40;;;;;;;24.06;45.54;101262.44;5564107;32;33558;-57
2023/09/06 10:41:33;;;;;;;31.65;5.57;;;;;;;24.08;47.76;101262.91;5568058;32;34329;-57
2023/09/06 10:44:55;;;;;;;5.10;3.37;;;;;;;24.08;49.33;101268.38;5566534;32;33386;-57
2023/09/06 10:48:11;;;;;;;12.07;3.85;;;;;;;24.14;46.41;101259.56;5559429;32;33496;-57
2023/09/06 10:51:14;;;;;;;5.47;3.25;;;;;;;24.08;46.52;101254.69;5561606;32;33641;-57
2023/09/06 10:54:18;;;;;;;5.45;3.20;;;;;;;24.08;46.36;101257.44;5564999;32;33778;-57
2023/09/06 10:57:20;;;;;;;4.70;3.12;;;;;;;24.22;45.30;101257.00;5564780;32;33620;-57
2023/09/06 11:00:26;;;;;;;6.37;3.40;;;;;;;24.37;43.33;101251.56;5567786;32;33645;-56
2023/09/06 11:03:32;;;;;;;8.07;3.40;;;;;;;24.25;45.01;101248.09;5560897;32;34373;-57
2023/09/06 11:06:53;;;;;;;5.60;3.30;;;;;;;24.33;48.67;101247.91;5556693;32;34329;-58
2023/09/06 11:09:56;;;;;;;9.15;3.67;;;;;;;24.32;49.26;101248.25;5558418;32;33806;-57
2023/09/06 11:13:12;;;;;;;7.22;3.60;;;;;;;24.23;44.11;101247.63;5566318;32;33802;-57
2023/09/06 11:16:16;;;;;;;20.37;4.43;;;;;;;24.29;44.58;101247.03;5565755;32;33787;-57
2023/09/06 11:19:31;;;;;;;10.40;3.67;;;;;;;24.36;47.78;101243.66;5556747;32;34380;-57
2023/09/06 11:22:33;;;;;;;8.30;3.10;;;;;;;24.50;44.81;101237.78;5555475;32;33774;-57
2023/09/06 11:25:36;;;;;;;7.12;3.55;;;;;;;24.49;48.36;101234.25;5561862;32;34302;-57
2023/09/06 11:28:42;;;;;;;19.83;4.15;;;;;;;24.42;46.07;101230.53;5559922;32;33799;-57
2023/09/06 11:31:47;;;;;;;6.40;3.37;;;;;;;24.54;45.70;101234.00;5556674;32;33737;-57
2023/09/06 11:34:49;;;;;;;8.13;3.47;;;;;;;24.55;43.57;101229.28;5550058;32;33708;-57
2023/09/06 11:37:53;;;;;;;4.60;3.42;;;;;;;24.57;44.80;101219.56;5560999;32;33592;-56
2023/09/06 11:40:57;;;;;;;7.03;3.10;;;;;;;24.55;42.98;101208.16;5566656;32;34077;-57
2023/09/06 11:44:06;;;;;;;5.28;3.35;;;;;;;24.66;45.45;101207.63;5561382;32;33595;-57
2023/09/06 11:47:10;;;;;;;6.47;3.65;;;;;;;24.59;44.23;101206.28;5555267;32;33670;-56
2023/09/06 11:50:18;;;;;;;9.20;3.80;;;;;;;24.58;45.20;101206.66;5559728;32;33197;-57
2023/09/06 11:53:20;;;;;;;6.53;3.37;;;;;;;24.68;45.99;101200.63;5566092;32;34389;-57
2023/09/06 11:56:26;;;;;;;4.78;3.17;;;;;;;24.73;43.40;101202.28;5561509;32;33686;-57
2023/09/06 11:59:32;;;;;;;6.40;3.08;;;;;;;24.71;43.23;101197.19;5558077;32;33670;-58
2023/09/06 12:02:34;;;;;;;8.80;3.25;;;;;;;24.74;41.37;101193.72;5567238;32;34389;-57
2023/09/06 12:05:43;;;;;;;26.65;6.55;;;;;;;24.73;42.94;101186.63;5567301;32;33635;-58
2023/09/06 12:08:51;;;;;;;11.38;4.35;;;;;;;24.74;44.03;101179.22;5567405;32;33740;-57
2023/09/06 12:11:54;;;;;;;8.40;3.30;;;;;;;24.78;43.13;101172.66;5565300;32;33619;-57
2023/09/06 12:14:56;;;;;;;4.15;3.10;;;;;;;24.98;42.97;101175.44;5567377;32;33741;-57
2023/09/06 12:17:59;;;;;;;5.30;3.25;;;;;;;24.86;43.58;101173.59;5564443;32;34082;-57
2023/09/06 12:21:03;;;;;;;8.13;3.53;;;;;;;24.83;43.28;101169.66;5564406;32;34121;-57
2023/09/06 12:24:06;;;;;;;7.55;3.53;;;;;;;24.80;43.41;101169.53;5562002;32;33384;-57
2023/09/06 12:27:09;;;;;;;10.13;3.72;;;;;;;24.90;43.65;101168.19;5565480;32;34375;-57
2023/09/06 12:30:14;;;;;;;7.85;3.72;;;;;;;24.85;44.21;101163.78;5566605;32;33532;-58
2023/09/06 12:33:18;;;;;;;9.45;3.58;;;;;;;24.87;43.40;101163.41;5568129;32;33696;-57
2023/09/06 12:36:20;;;;;;;6.57;3.17;;;;;;;24.89;43.40;101166.63;5564308;31;33697;-57
2023/09/06 12:39:23;;;;;;;10.23;3.87;;;;;;;24.94;43.36;101158.91;5561383;32;34221;-57
2023/09/06 12:42:26;;;;;;;13.70;3.72;;;;;;;24.85;45.32;101156.34;5565447;32;33654;-57
2023/09/06 12:45:33;;;;;;;3.97;3.05;;;;;;;24.89;43.95;101153.69;5556917;32;33606;-57
2023/09/06 12:48:36;;;;;;;9.27;3.50;;;;;;;24.98;41.43;101146.06;5559976;32;34361;-57
2023/09/06 12:51:38;;;;;;;7.28;3.37;;;;;;;24.99;42.72;101141.38;5561670;32;33731;-57
2023/09/06 12:54:41;;;;;;;6.65;3.33;;;;;;;25.06;41.74;101141.50;5563865;32;33340;-57
2023/09/06 12:57:43;;;;;;;5.25;3.12;;;;;;;25.02;41.89;101132.41;5562847;32;33697;-57
2023/09/06 13:00:46;;;;;;;5.65;3.37;;;;;;;25.07;42.43;101134.87;5556291;32;33258;-57
2023/09/06 13:03:49;;;;;;;8.10;3.47;;;;;;;25.16;40.27;101130.00;5553189;32;33322;-57
2023/09/06 13:06:52;;;;;;;6.30;3.70;;;;;;;25.15;40.55;101127.63;5564531;32;34424;-57
2023/09/06 13:09:54;;;;;;;6.70;3.30;;;;;;;25.15;40.58;101120.19;5558095;32;34748;-58
2023/09/06 13:12:56;;;;;;;8.85;3.40;;;;;;;25.17;39.85;101128.06;5564513;32;33669;-57
2023/09/06 13:15:59;;;;;;;10.90;3.60;;;;;;;25.17;40.57;101122.56;5564862;32;33760;-57
2023/09/06 13:19:01;;;;;;;10.82;3.10;;;;;;;25.15;40.32;101124.87;5557137;32;33864;-57
2023/09/06 13:22:04;;;;;;;8.82;3.53;;;;;;;25.15;40.41;101120.19;5556282;32;34387;-57
2023/09/06 13:25:08;;;;;;;5.80;2.83;;;;;;;25.15;40.28;101117.44;5567831;32;34337;-57
2023/09/06 13:28:10;;;;;;;6.45;3.22;;;;;;;25.23;40.86;101115.63;5556389;32;34367;-57
2023/09/06 13:31:12;;;;;;;7.57;3.45;;;;;;;25.19;40.58;101110.06;5563711;32;33741;-57
2023/09/06 13:34:15;;;;;;;8.15;3.78;;;;;;;25.19;41.01;101103.78;5561679;32;33704;-57
2023/09/06 13:37:17;;;;;;;5.55;3.30;;;;;;;25.22;40.99;101106.59;5561582;32;33960;-57
2023/09/06 13:40:20;;;;;;;30.40;4.35;;;;;;;25.13;40.66;101102.47;5560669;32;33190;-57
2023/09/06 13:43:22;;;;;;;29.08;4.78;;;;;;;25.11;41.16;101099.28;5556723;32;33706;-57
2023/09/06 13:46:24;;;;;;;6.30;3.30;;;;;;;25.20;41.46;101092.47;5562600;32;33737;-57
2023/09/06 13:49:27;;;;;;;6.53;3.33;;;;;;;25.19;39.87;101093.59;5562847;32;33636;-57
2023/09/06 13:52:30;;;;;;;11.63;3.70;;;;;;;25.12;39.39;101090.72;5556197;32;33700;-57
2023/09/06 13:55:32;;;;;;;6.37;3.30;;;;;;;25.09;39.41;101089.47;5568292;32;33677;-57
2023/09/06 13:58:35;;;;;;;15.93;3.33;;;;;;;25.15;40.48;101084.50;5562365;32;34306;-57
2023/09/06 14:01:38;;;;;;;8.95;3.45;;;;;;;25.17;41.58;101078.69;5553277;32;33798;-57
2023/09/06 14:04:40;;;;;;;8.35;3.45;;;;;;;25.21;44.65;101085.81;5556432;32;34272;-57
2023/09/06 14:07:45;;;;;;;10.65;3.40;;;;;;;25.22;40.55;101075.62;5567695;32;33683;-57
2023/09/06 14:10:52;;;;;;;12.85;3.17;;;;;;;25.16;41.04;101077.06;5554872;32;33696;-57
2023/09/06 14:13:55;;;;;;;11.77;3.83;;;;;;;25.20;40.10;101072.44;5556012;32;32339;-58
2023/09/06 14:16:57;;;;;;;6.72;3.30;;;;;;;25.26;42.05;101079.22;5555882;32;34388;-58
2023/09/06 14:20:00;;;;;;;12.50;3.67;;;;;;;25.19;40.72;101070.84;5557948;32;33701;-57
2023/09/06 14:23:02;;;;;;;7.97;4.00;;;;;;;25.26;39.99;101069.03;5565626;32;33434;-57
2023/09/06 14:26:05;;;;;;;14.30;4.00;;;;;;;25.29;40.51;101068.31;5558446;32;33801;-57
2023/09/06 14:29:07;;;;;;;14.95;3.75;;;;;;;25.24;41.29;101062.34;5567385;32;33614;-57
2023/09/06 14:32:09;;;;;;;14.77;4.05;;;;;;;25.28;40.91;101069.47;5562936;32;33842;-57
2023/09/06 14:35:12;;;;;;;17.73;4.97;;;;;;;25.24;41.13;101062.34;5563922;31;33651;-58
2023/09/06 14:38:16;;;;;;;11.63;3.37;;;;;;;25.30;41.42;101061.69;5568719;32;34395;-57
2023/09/06 14:41:18;;;;;;;12.50;3.75;;;;;;;25.44;39.61;101063.91;5565045;32;34438;-57
2023/09/06 14:44:21;;;;;;;7.57;3.42;;;;;;;25.28;38.65;101058.50;5566491;32;33634;-57
2023/09/06 14:47:24;;;;;;;5.18;3.05;;;;;;;25.31;38.96;101055.03;5568357;32;33736;-57
2023/09/06 14:50:26;;;;;;;7.55;3.53;;;;;;;25.30;38.52;101050.72;5568035;32;34335;-57
2023/09/06 14:53:29;;;;;;;18.02;4.45;;;;;;;25.26;37.52;101049.81;5562743;32;33847;-57
2023/09/06 14:56:31;;;;;;;6.87;3.60;;;;;;;25.23;40.23;101056.06;5549637;32;33649;-57
2023/09/06 14:59:39;;;;;;;8.65;3.65;;;;;;;25.16;38.63;101050.41;5549666;32;34365;-57
2023/09/06 15:02:41;;;;;;;6.40;3.53;;;;;;;25.20;39.42;101051.31;5549730;32;33697;-58
2023/09/06 15:05:44;;;;;;;5.65;3.28;;;;;;;25.20;38.39;101050.50;5549574;32;33704;-58
